Haines Junction, Canada
Current Conditions -  °F | °C
As of 7:00 PM on Friday 19 Dec 2014 (Local Time) from CYDB Reporting Station
Light Snow Light Snow  
Wind Chill: -13°   Ceiling: Unl
Heat Index: -13°   Visibility: 9mi
Dew Point: -17°   Wind: 0mph
Humidity: 84%   Direction: NA
Pressure: 29.24"   Gusts: NA
Location:  60.75°N, 137.51°W
Report Text: CYDB 200300Z AUTO 00000KT 9SM -SN CLR M25/M27 A2924 RMK SLP981
Loading
Personal Weather Stations






























Interactive Weather Map New forecast layout! Learn more

10-Day Weather Forecast

Advertisements
Track Severe Weather on mobile